sensor_id;sensor_type;location;lat;lon;timestamp;P1;durP1;ratioP1;P2;durP2;ratioP2
2434;SDS011;1228;51.022;6.764;2024-03-23T00:54:22;13.73;;;9.50;;
2434;SDS011;1228;51.022;6.764;2024-03-23T00:56:48;20.07;;;9.27;;
2434;SDS011;1228;51.022;6.764;2024-03-23T00:59:13;16.00;;;8.83;;
2434;SDS011;1228;51.022;6.764;2024-03-23T01:01:39;12.47;;;7.53;;
2434;SDS011;1228;51.022;6.764;2024-03-23T01:04:05;14.13;;;8.07;;
2434;SDS011;1228;51.022;6.764;2024-03-23T01:06:30;12.50;;;7.43;;
2434;SDS011;1228;51.022;6.764;2024-03-23T01:08:56;16.47;;;8.17;;
2434;SDS011;1228;51.022;6.764;2024-03-23T01:11:22;15.33;;;8.90;;
2434;SDS011;1228;51.022;6.764;2024-03-23T01:13:47;13.70;;;8.00;;
2434;SDS011;1228;51.022;6.764;2024-03-23T01:16:13;14.23;;;8.83;;
2434;SDS011;1228;51.022;6.764;2024-03-23T01:18:38;21.13;;;9.40;;
2434;SDS011;1228;51.022;6.764;2024-03-23T01:21:04;13.93;;;9.20;;
2434;SDS011;1228;51.022;6.764;2024-03-23T01:23:30;21.07;;;9.33;;
2434;SDS011;1228;51.022;6.764;2024-03-23T01:25:55;15.23;;;9.73;;
2434;SDS011;1228;51.022;6.764;2024-03-23T01:28:21;19.47;;;10.03;;
2434;SDS011;1228;51.022;6.764;2024-03-23T01:30:47;20.17;;;9.33;;
2434;SDS011;1228;51.022;6.764;2024-03-23T01:33:13;18.83;;;9.57;;
2434;SDS011;1228;51.022;6.764;2024-03-23T01:35:38;18.47;;;9.83;;
2434;SDS011;1228;51.022;6.764;2024-03-23T01:38:04;25.57;;;10.33;;
2434;SDS011;1228;51.022;6.764;2024-03-23T01:40:30;20.83;;;10.17;;
2434;SDS011;1228;51.022;6.764;2024-03-23T01:43:02;24.30;;;10.80;;
2434;SDS011;1228;51.022;6.764;2024-03-23T01:45:29;17.53;;;10.83;;
2434;SDS011;1228;51.022;6.764;2024-03-23T01:47:55;26.77;;;11.47;;
2434;SDS011;1228;51.022;6.764;2024-03-23T01:50:21;19.87;;;10.97;;
2434;SDS011;1228;51.022;6.764;2024-03-23T01:52:48;29.50;;;12.00;;
2434;SDS011;1228;51.022;6.764;2024-03-23T01:55:14;27.33;;;12.07;;
2434;SDS011;1228;51.022;6.764;2024-03-23T01:57:40;14.70;;;8.50;;
2434;SDS011;1228;51.022;6.764;2024-03-23T02:00:06;12.00;;;6.43;;
2434;SDS011;1228;51.022;6.764;2024-03-23T02:02:32;15.33;;;6.73;;
2434;SDS011;1228;51.022;6.764;2024-03-23T02:04:58;9.83;;;6.33;;
2434;SDS011;1228;51.022;6.764;2024-03-23T02:07:24;14.83;;;7.40;;
2434;SDS011;1228;51.022;6.764;2024-03-23T02:09:50;12.70;;;6.20;;
2434;SDS011;1228;51.022;6.764;2024-03-23T02:12:16;8.93;;;6.00;;
2434;SDS011;1228;51.022;6.764;2024-03-23T02:14:43;7.37;;;5.90;;
2434;SDS011;1228;51.022;6.764;2024-03-23T02:17:08;7.80;;;5.97;;
2434;SDS011;1228;51.022;6.764;2024-03-23T02:19:34;9.90;;;6.07;;
2434;SDS011;1228;51.022;6.764;2024-03-23T02:22:00;7.63;;;6.10;;
2434;SDS011;1228;51.022;6.764;2024-03-23T02:24:25;8.33;;;6.77;;
2434;SDS011;1228;51.022;6.764;2024-03-23T02:26:51;9.57;;;6.33;;
2434;SDS011;1228;51.022;6.764;2024-03-23T02:29:16;10.77;;;6.47;;
2434;SDS011;1228;51.022;6.764;2024-03-23T02:31:42;7.67;;;6.13;;
2434;SDS011;1228;51.022;6.764;2024-03-23T02:34:08;11.13;;;5.93;;
2434;SDS011;1228;51.022;6.764;2024-03-23T02:36:33;45.13;;;19.60;;
2434;SDS011;1228;51.022;6.764;2024-03-23T02:38:59;28.40;;;13.03;;
2434;SDS011;1228;51.022;6.764;2024-03-23T02:41:25;60.70;;;33.93;;
2434;SDS011;1228;51.022;6.764;2024-03-23T02:43:50;24.30;;;14.00;;
2434;SDS011;1228;51.022;6.764;2024-03-23T02:46:16;17.07;;;11.13;;
2434;SDS011;1228;51.022;6.764;2024-03-23T02:48:41;11.87;;;7.77;;
2434;SDS011;1228;51.022;6.764;2024-03-23T02:51:07;13.73;;;6.97;;
2434;SDS011;1228;51.022;6.764;2024-03-23T02:53:33;11.33;;;7.57;;
2434;SDS011;1228;51.022;6.764;2024-03-23T02:55:59;11.23;;;7.37;;
2434;SDS011;1228;51.022;6.764;2024-03-23T02:58:24;13.83;;;7.00;;
2434;SDS011;1228;51.022;6.764;2024-03-23T03:00:50;10.83;;;6.97;;
2434;SDS011;1228;51.022;6.764;2024-03-23T03:03:15;20.17;;;7.30;;
2434;SDS011;1228;51.022;6.764;2024-03-23T03:05:41;17.03;;;7.30;;
2434;SDS011;1228;51.022;6.764;2024-03-23T03:08:06;13.90;;;6.30;;
2434;SDS011;1228;51.022;6.764;2024-03-23T03:10:32;16.17;;;14.57;;
2434;SDS011;1228;51.022;6.764;2024-03-23T03:13:00;12.67;;;7.70;;
2434;SDS011;1228;51.022;6.764;2024-03-23T03:15:25;9.47;;;8.20;;
2434;SDS011;1228;51.022;6.764;2024-03-23T03:17:51;16.00;;;7.13;;
2434;SDS011;1228;51.022;6.764;2024-03-23T03:20:17;9.03;;;6.50;;
2434;SDS011;1228;51.022;6.764;2024-03-23T03:22:43;11.97;;;5.83;;
2434;SDS011;1228;51.022;6.764;2024-03-23T03:25:09;15.83;;;6.73;;
2434;SDS011;1228;51.022;6.764;2024-03-23T03:27:34;14.30;;;6.00;;
2434;SDS011;1228;51.022;6.764;2024-03-23T03:30:00;12.50;;;6.67;;
2434;SDS011;1228;51.022;6.764;2024-03-23T03:32:30;8.80;;;6.23;;
2434;SDS011;1228;51.022;6.764;2024-03-23T03:34:55;9.30;;;6.17;;
2434;SDS011;1228;51.022;6.764;2024-03-23T03:37:21;12.33;;;6.30;;
2434;SDS011;1228;51.022;6.764;2024-03-23T03:39:46;8.53;;;6.00;;
2434;SDS011;1228;51.022;6.764;2024-03-23T03:42:12;11.53;;;6.93;;
2434;SDS011;1228;51.022;6.764;2024-03-23T03:44:38;11.67;;;5.90;;
2434;SDS011;1228;51.022;6.764;2024-03-23T03:47:04;15.67;;;6.03;;
2434;SDS011;1228;51.022;6.764;2024-03-23T03:49:30;14.20;;;6.97;;
2434;SDS011;1228;51.022;6.764;2024-03-23T03:51:56;24.13;;;6.40;;
2434;SDS011;1228;51.022;6.764;2024-03-23T03:54:22;10.60;;;6.50;;
2434;SDS011;1228;51.022;6.764;2024-03-23T03:59:14;15.13;;;6.20;;
2434;SDS011;1228;51.022;6.764;2024-03-23T04:01:40;15.00;;;6.70;;
2434;SDS011;1228;51.022;6.764;2024-03-23T04:04:05;14.00;;;6.80;;
2434;SDS011;1228;51.022;6.764;2024-03-23T04:06:31;13.43;;;6.73;;
2434;SDS011;1228;51.022;6.764;2024-03-23T04:08:58;15.80;;;6.50;;
2434;SDS011;1228;51.022;6.764;2024-03-23T04:11:24;11.13;;;6.67;;
2434;SDS011;1228;51.022;6.764;2024-03-23T04:13:49;10.50;;;6.37;;
2434;SDS011;1228;51.022;6.764;2024-03-23T04:16:29;10.23;;;6.57;;
2434;SDS011;1228;51.022;6.764;2024-03-23T04:18:58;12.60;;;7.10;;
2434;SDS011;1228;51.022;6.764;2024-03-23T04:21:24;10.57;;;6.70;;
2434;SDS011;1228;51.022;6.764;2024-03-23T04:23:50;12.97;;;6.63;;
2434;SDS011;1228;51.022;6.764;2024-03-23T04:26:15;11.50;;;6.07;;
2434;SDS011;1228;51.022;6.764;2024-03-23T04:28:41;16.90;;;7.70;;
2434;SDS011;1228;51.022;6.764;2024-03-23T04:31:08;11.87;;;6.90;;
2434;SDS011;1228;51.022;6.764;2024-03-23T04:33:33;15.93;;;7.00;;
2434;SDS011;1228;51.022;6.764;2024-03-23T04:35:59;12.97;;;6.70;;
2434;SDS011;1228;51.022;6.764;2024-03-23T04:38:25;13.97;;;6.60;;
2434;SDS011;1228;51.022;6.764;2024-03-23T04:40:54;8.70;;;6.23;;
2434;SDS011;1228;51.022;6.764;2024-03-23T04:43:21;8.83;;;6.67;;
2434;SDS011;1228;51.022;6.764;2024-03-23T04:45:46;12.27;;;7.40;;
2434;SDS011;1228;51.022;6.764;2024-03-23T04:48:12;10.70;;;8.73;;
2434;SDS011;1228;51.022;6.764;2024-03-23T04:50:38;17.73;;;8.00;;
2434;SDS011;1228;51.022;6.764;2024-03-23T04:53:03;10.30;;;7.47;;
2434;SDS011;1228;51.022;6.764;2024-03-23T04:55:29;16.03;;;7.83;;
2434;SDS011;1228;51.022;6.764;2024-03-23T04:57:56;23.23;;;7.70;;
2434;SDS011;1228;51.022;6.764;2024-03-23T05:00:21;15.03;;;7.23;;
2434;SDS011;1228;51.022;6.764;2024-03-23T05:02:48;15.57;;;7.33;;
2434;SDS011;1228;51.022;6.764;2024-03-23T05:05:14;13.80;;;7.50;;
2434;SDS011;1228;51.022;6.764;2024-03-23T05:07:39;15.07;;;7.40;;
2434;SDS011;1228;51.022;6.764;2024-03-23T05:10:06;11.80;;;6.77;;
2434;SDS011;1228;51.022;6.764;2024-03-23T05:12:36;12.07;;;7.70;;
2434;SDS011;1228;51.022;6.764;2024-03-23T05:15:03;18.33;;;7.53;;
2434;SDS011;1228;51.022;6.764;2024-03-23T05:17:30;13.33;;;7.03;;
2434;SDS011;1228;51.022;6.764;2024-03-23T05:19:57;19.63;;;7.07;;
2434;SDS011;1228;51.022;6.764;2024-03-23T05:22:22;16.87;;;6.87;;
2434;SDS011;1228;51.022;6.764;2024-03-23T05:24:48;17.53;;;7.53;;
2434;SDS011;1228;51.022;6.764;2024-03-23T05:27:14;20.53;;;7.70;;
2434;SDS011;1228;51.022;6.764;2024-03-23T05:29:40;15.50;;;8.47;;
2434;SDS011;1228;51.022;6.764;2024-03-23T05:32:08;12.23;;;7.57;;
2434;SDS011;1228;51.022;6.764;2024-03-23T05:34:34;19.73;;;8.00;;
2434;SDS011;1228;51.022;6.764;2024-03-23T05:36:59;15.37;;;8.17;;
2434;SDS011;1228;51.022;6.764;2024-03-23T05:39:25;18.67;;;7.63;;
2434;SDS011;1228;51.022;6.764;2024-03-23T05:41:52;17.63;;;7.67;;
2434;SDS011;1228;51.022;6.764;2024-03-23T05:44:20;18.37;;;7.80;;
2434;SDS011;1228;51.022;6.764;2024-03-23T05:46:46;15.50;;;8.13;;
2434;SDS011;1228;51.022;6.764;2024-03-23T05:49:15;14.30;;;7.87;;
2434;SDS011;1228;51.022;6.764;2024-03-23T05:51:41;13.90;;;8.27;;
2434;SDS011;1228;51.022;6.764;2024-03-23T05:54:06;12.27;;;8.47;;
2434;SDS011;1228;51.022;6.764;2024-03-23T05:56:32;19.27;;;8.47;;
2434;SDS011;1228;51.022;6.764;2024-03-23T05:58:58;15.93;;;9.27;;
2434;SDS011;1228;51.022;6.764;2024-03-23T06:01:28;22.60;;;8.87;;
2434;SDS011;1228;51.022;6.764;2024-03-23T06:03:54;11.10;;;8.20;;
2434;SDS011;1228;51.022;6.764;2024-03-23T06:06:24;14.47;;;8.13;;
2434;SDS011;1228;51.022;6.764;2024-03-23T06:08:52;14.77;;;8.30;;
2434;SDS011;1228;51.022;6.764;2024-03-23T06:11:22;13.03;;;7.40;;
2434;SDS011;1228;51.022;6.764;2024-03-23T06:13:58;20.50;;;8.70;;
2434;SDS011;1228;51.022;6.764;2024-03-23T06:16:23;16.23;;;8.27;;
2434;SDS011;1228;51.022;6.764;2024-03-23T06:18:52;19.07;;;8.93;;
2434;SDS011;1228;51.022;6.764;2024-03-23T06:21:25;13.23;;;8.17;;
2434;SDS011;1228;51.022;6.764;2024-03-23T06:24:02;13.03;;;8.13;;
2434;SDS011;1228;51.022;6.764;2024-03-23T06:26:32;14.90;;;8.37;;
2434;SDS011;1228;51.022;6.764;2024-03-23T06:29:16;17.33;;;8.17;;
2434;SDS011;1228;51.022;6.764;2024-03-23T06:31:44;24.17;;;8.60;;
2434;SDS011;1228;51.022;6.764;2024-03-23T06:34:19;10.80;;;8.60;;
2434;SDS011;1228;51.022;6.764;2024-03-23T06:36:55;13.77;;;8.90;;
2434;SDS011;1228;51.022;6.764;2024-03-23T06:39:35;17.57;;;9.27;;
2434;SDS011;1228;51.022;6.764;2024-03-23T06:44:59;15.53;;;9.23;;
2434;SDS011;1228;51.022;6.764;2024-03-23T06:47:29;19.80;;;9.03;;
2434;SDS011;1228;51.022;6.764;2024-03-23T06:50:10;12.73;;;9.73;;
2434;SDS011;1228;51.022;6.764;2024-03-23T06:52:41;14.83;;;9.13;;
2434;SDS011;1228;51.022;6.764;2024-03-23T06:55:17;17.10;;;9.90;;
2434;SDS011;1228;51.022;6.764;2024-03-23T06:57:46;20.40;;;9.40;;
2434;SDS011;1228;51.022;6.764;2024-03-23T07:00:15;17.67;;;9.13;;
2434;SDS011;1228;51.022;6.764;2024-03-23T07:02:45;16.50;;;10.40;;
2434;SDS011;1228;51.022;6.764;2024-03-23T07:05:39;16.60;;;8.57;;
2434;SDS011;1228;51.022;6.764;2024-03-23T07:08:06;16.90;;;8.27;;
2434;SDS011;1228;51.022;6.764;2024-03-23T07:10:48;14.40;;;8.20;;
2434;SDS011;1228;51.022;6.764;2024-03-23T07:13:18;15.27;;;8.87;;
2434;SDS011;1228;51.022;6.764;2024-03-23T07:15:44;17.20;;;8.33;;
2434;SDS011;1228;51.022;6.764;2024-03-23T07:18:23;23.00;;;8.33;;
2434;SDS011;1228;51.022;6.764;2024-03-23T07:20:52;13.10;;;6.40;;
2434;SDS011;1228;51.022;6.764;2024-03-23T07:23:36;16.73;;;6.87;;
2434;SDS011;1228;51.022;6.764;2024-03-23T07:26:06;14.87;;;6.90;;
2434;SDS011;1228;51.022;6.764;2024-03-23T07:32:20;12.93;;;6.40;;
2434;SDS011;1228;51.022;6.764;2024-03-23T07:34:54;14.53;;;6.83;;
2434;SDS011;1228;51.022;6.764;2024-03-23T07:37:23;16.13;;;6.90;;
2434;SDS011;1228;51.022;6.764;2024-03-23T07:40:14;13.03;;;6.90;;
2434;SDS011;1228;51.022;6.764;2024-03-23T07:42:42;14.40;;;7.10;;
2434;SDS011;1228;51.022;6.764;2024-03-23T07:45:07;9.43;;;6.80;;
2434;SDS011;1228;51.022;6.764;2024-03-23T07:47:34;13.13;;;7.23;;
2434;SDS011;1228;51.022;6.764;2024-03-23T07:50:01;9.63;;;7.00;;
2434;SDS011;1228;51.022;6.764;2024-03-23T07:52:38;15.23;;;7.40;;
2434;SDS011;1228;51.022;6.764;2024-03-23T07:55:03;14.30;;;8.57;;
2434;SDS011;1228;51.022;6.764;2024-03-23T07:57:29;12.53;;;7.30;;
2434;SDS011;1228;51.022;6.764;2024-03-23T07:59:55;12.87;;;6.57;;
2434;SDS011;1228;51.022;6.764;2024-03-23T08:02:21;11.67;;;6.60;;
2434;SDS011;1228;51.022;6.764;2024-03-23T08:04:46;7.03;;;5.40;;
2434;SDS011;1228;51.022;6.764;2024-03-23T08:07:12;7.73;;;5.43;;
2434;SDS011;1228;51.022;6.764;2024-03-23T08:09:37;8.60;;;5.30;;
2434;SDS011;1228;51.022;6.764;2024-03-23T08:12:03;7.00;;;5.20;;
2434;SDS011;1228;51.022;6.764;2024-03-23T08:14:29;6.17;;;3.90;;
2434;SDS011;1228;51.022;6.764;2024-03-23T08:16:54;6.77;;;4.50;;
2434;SDS011;1228;51.022;6.764;2024-03-23T08:19:20;5.90;;;3.93;;
2434;SDS011;1228;51.022;6.764;2024-03-23T08:21:46;6.33;;;3.60;;
2434;SDS011;1228;51.022;6.764;2024-03-23T08:24:11;5.67;;;3.63;;
2434;SDS011;1228;51.022;6.764;2024-03-23T08:26:37;4.67;;;3.63;;
2434;SDS011;1228;51.022;6.764;2024-03-23T08:29:03;7.93;;;3.93;;
2434;SDS011;1228;51.022;6.764;2024-03-23T08:31:29;11.10;;;3.73;;
2434;SDS011;1228;51.022;6.764;2024-03-23T08:33:54;5.63;;;4.20;;
2434;SDS011;1228;51.022;6.764;2024-03-23T08:36:20;6.93;;;4.70;;
2434;SDS011;1228;51.022;6.764;2024-03-23T08:38:45;9.70;;;4.83;;
2434;SDS011;1228;51.022;6.764;2024-03-23T08:41:11;8.77;;;5.10;;
2434;SDS011;1228;51.022;6.764;2024-03-23T08:43:40;9.93;;;5.43;;
2434;SDS011;1228;51.022;6.764;2024-03-23T08:48:35;10.60;;;6.00;;
2434;SDS011;1228;51.022;6.764;2024-03-23T08:51:06;9.37;;;4.83;;
2434;SDS011;1228;51.022;6.764;2024-03-23T08:53:33;12.03;;;5.43;;
2434;SDS011;1228;51.022;6.764;2024-03-23T08:56:00;12.87;;;5.47;;
2434;SDS011;1228;51.022;6.764;2024-03-23T08:58:27;12.00;;;6.10;;
2434;SDS011;1228;51.022;6.764;2024-03-23T09:00:54;9.97;;;5.83;;
2434;SDS011;1228;51.022;6.764;2024-03-23T09:03:24;10.73;;;5.47;;
2434;SDS011;1228;51.022;6.764;2024-03-23T09:05:51;11.97;;;5.70;;
2434;SDS011;1228;51.022;6.764;2024-03-23T09:08:17;8.23;;;4.40;;
2434;SDS011;1228;51.022;6.764;2024-03-23T09:10:43;10.07;;;6.53;;
2434;SDS011;1228;51.022;6.764;2024-03-23T09:13:08;8.77;;;4.90;;
2434;SDS011;1228;51.022;6.764;2024-03-23T09:15:34;8.20;;;4.80;;
2434;SDS011;1228;51.022;6.764;2024-03-23T09:18:01;9.50;;;5.07;;
2434;SDS011;1228;51.022;6.764;2024-03-23T09:20:28;10.27;;;5.07;;
2434;SDS011;1228;51.022;6.764;2024-03-23T09:22:54;9.80;;;5.53;;
2434;SDS011;1228;51.022;6.764;2024-03-23T09:25:19;6.97;;;4.40;;
2434;SDS011;1228;51.022;6.764;2024-03-23T09:27:48;7.27;;;4.10;;
2434;SDS011;1228;51.022;6.764;2024-03-23T09:30:14;7.23;;;4.27;;
2434;SDS011;1228;51.022;6.764;2024-03-23T09:32:41;7.47;;;3.90;;
2434;SDS011;1228;51.022;6.764;2024-03-23T09:35:08;8.30;;;4.87;;
2434;SDS011;1228;51.022;6.764;2024-03-23T09:37:34;11.73;;;5.27;;
2434;SDS011;1228;51.022;6.764;2024-03-23T09:39:59;7.03;;;3.63;;
2434;SDS011;1228;51.022;6.764;2024-03-23T09:42:25;10.53;;;4.20;;
2434;SDS011;1228;51.022;6.764;2024-03-23T09:44:51;4.43;;;3.40;;
2434;SDS011;1228;51.022;6.764;2024-03-23T09:47:17;9.97;;;3.93;;
2434;SDS011;1228;51.022;6.764;2024-03-23T09:49:43;6.63;;;4.10;;
2434;SDS011;1228;51.022;6.764;2024-03-23T09:52:09;6.33;;;3.70;;
2434;SDS011;1228;51.022;6.764;2024-03-23T09:54:35;10.03;;;4.00;;
2434;SDS011;1228;51.022;6.764;2024-03-23T09:57:01;5.67;;;3.10;;
2434;SDS011;1228;51.022;6.764;2024-03-23T09:59:26;8.40;;;3.60;;
2434;SDS011;1228;51.022;6.764;2024-03-23T10:01:55;7.27;;;3.23;;
2434;SDS011;1228;51.022;6.764;2024-03-23T10:04:40;8.77;;;3.33;;
2434;SDS011;1228;51.022;6.764;2024-03-23T10:07:13;5.27;;;3.67;;
2434;SDS011;1228;51.022;6.764;2024-03-23T10:09:40;8.80;;;2.83;;
2434;SDS011;1228;51.022;6.764;2024-03-23T10:12:12;4.77;;;2.97;;
2434;SDS011;1228;51.022;6.764;2024-03-23T10:14:40;3.60;;;2.70;;
2434;SDS011;1228;51.022;6.764;2024-03-23T10:17:18;6.83;;;3.27;;
2434;SDS011;1228;51.022;6.764;2024-03-23T10:19:49;11.03;;;3.47;;
2434;SDS011;1228;51.022;6.764;2024-03-23T10:22:23;4.83;;;3.10;;
2434;SDS011;1228;51.022;6.764;2024-03-23T10:24:52;3.27;;;2.97;;
2434;SDS011;1228;51.022;6.764;2024-03-23T10:27:19;3.30;;;2.73;;
2434;SDS011;1228;51.022;6.764;2024-03-23T10:29:46;6.80;;;3.20;;
2434;SDS011;1228;51.022;6.764;2024-03-23T10:32:13;4.60;;;3.13;;
2434;SDS011;1228;51.022;6.764;2024-03-23T10:34:40;3.93;;;3.00;;
2434;SDS011;1228;51.022;6.764;2024-03-23T10:37:07;3.33;;;3.03;;
2434;SDS011;1228;51.022;6.764;2024-03-23T10:39:33;3.20;;;3.00;;
2434;SDS011;1228;51.022;6.764;2024-03-23T10:42:03;3.53;;;3.20;;
2434;SDS011;1228;51.022;6.764;2024-03-23T10:44:33;7.07;;;3.60;;
2434;SDS011;1228;51.022;6.764;2024-03-23T10:47:02;3.23;;;2.93;;
2434;SDS011;1228;51.022;6.764;2024-03-23T10:49:29;4.03;;;3.63;;
2434;SDS011;1228;51.022;6.764;2024-03-23T10:51:59;5.90;;;3.77;;
2434;SDS011;1228;51.022;6.764;2024-03-23T10:54:27;7.07;;;4.37;;
2434;SDS011;1228;51.022;6.764;2024-03-23T10:59:34;4.50;;;4.10;;
2434;SDS011;1228;51.022;6.764;2024-03-23T11:02:02;6.57;;;4.03;;
2434;SDS011;1228;51.022;6.764;2024-03-23T11:04:38;4.77;;;4.30;;
2434;SDS011;1228;51.022;6.764;2024-03-23T11:09:48;5.13;;;3.73;;
2434;SDS011;1228;51.022;6.764;2024-03-23T11:14:48;3.67;;;3.47;;
2434;SDS011;1228;51.022;6.764;2024-03-23T11:17:21;3.73;;;3.03;;
2434;SDS011;1228;51.022;6.764;2024-03-23T11:20:03;3.80;;;3.47;;
2434;SDS011;1228;51.022;6.764;2024-03-23T11:25:21;3.77;;;3.00;;
2434;SDS011;1228;51.022;6.764;2024-03-23T11:27:51;3.20;;;3.00;;
2434;SDS011;1228;51.022;6.764;2024-03-23T11:30:25;5.73;;;3.27;;
2434;SDS011;1228;51.022;6.764;2024-03-23T11:32:53;6.87;;;3.30;;
2434;SDS011;1228;51.022;6.764;2024-03-23T11:40:26;4.57;;;3.40;;
2434;SDS011;1228;51.022;6.764;2024-03-23T11:42:55;4.00;;;3.63;;
2434;SDS011;1228;51.022;6.764;2024-03-23T11:45:21;4.53;;;4.13;;
2434;SDS011;1228;51.022;6.764;2024-03-23T11:47:47;4.13;;;3.70;;
2434;SDS011;1228;51.022;6.764;2024-03-23T11:50:19;7.00;;;3.53;;
2434;SDS011;1228;51.022;6.764;2024-03-23T11:52:45;4.37;;;3.20;;
2434;SDS011;1228;51.022;6.764;2024-03-23T11:55:10;3.30;;;3.00;;
2434;SDS011;1228;51.022;6.764;2024-03-23T11:57:36;3.50;;;3.20;;
2434;SDS011;1228;51.022;6.764;2024-03-23T12:00:02;5.20;;;3.30;;
2434;SDS011;1228;51.022;6.764;2024-03-23T12:02:44;4.07;;;3.33;;
2434;SDS011;1228;51.022;6.764;2024-03-23T12:05:13;3.90;;;3.60;;
2434;SDS011;1228;51.022;6.764;2024-03-23T12:07:40;3.10;;;2.90;;
2434;SDS011;1228;51.022;6.764;2024-03-23T12:10:06;6.60;;;6.30;;
2434;SDS011;1228;51.022;6.764;2024-03-23T12:12:32;2.77;;;2.67;;
2434;SDS011;1228;51.022;6.764;2024-03-23T12:15:02;11.07;;;10.47;;
2434;SDS011;1228;51.022;6.764;2024-03-23T12:17:29;3.40;;;3.10;;
2434;SDS011;1228;51.022;6.764;2024-03-23T12:19:54;4.30;;;4.00;;
2434;SDS011;1228;51.022;6.764;2024-03-23T12:22:20;5.57;;;4.77;;
2434;SDS011;1228;51.022;6.764;2024-03-23T12:24:47;3.63;;;3.43;;
2434;SDS011;1228;51.022;6.764;2024-03-23T12:27:13;3.40;;;3.20;;
2434;SDS011;1228;51.022;6.764;2024-03-23T12:29:39;4.43;;;4.13;;
2434;SDS011;1228;51.022;6.764;2024-03-23T12:32:06;4.47;;;3.97;;
2434;SDS011;1228;51.022;6.764;2024-03-23T12:34:32;3.60;;;3.40;;
2434;SDS011;1228;51.022;6.764;2024-03-23T12:36:58;3.30;;;3.20;;
2434;SDS011;1228;51.022;6.764;2024-03-23T12:39:24;5.03;;;3.50;;
2434;SDS011;1228;51.022;6.764;2024-03-23T12:41:49;3.63;;;3.43;;
2434;SDS011;1228;51.022;6.764;2024-03-23T12:44:15;4.40;;;3.33;;
2434;SDS011;1228;51.022;6.764;2024-03-23T12:46:41;3.40;;;3.10;;
2434;SDS011;1228;51.022;6.764;2024-03-23T12:49:07;2.97;;;2.77;;
2434;SDS011;1228;51.022;6.764;2024-03-23T12:51:33;3.37;;;3.17;;
2434;SDS011;1228;51.022;6.764;2024-03-23T12:53:59;4.63;;;3.70;;
2434;SDS011;1228;51.022;6.764;2024-03-23T12:56:25;3.73;;;3.50;;
2434;SDS011;1228;51.022;6.764;2024-03-23T12:58:51;3.83;;;3.23;;
2434;SDS011;1228;51.022;6.764;2024-03-23T13:01:18;5.37;;;3.50;;
2434;SDS011;1228;51.022;6.764;2024-03-23T13:03:45;4.37;;;2.90;;
2434;SDS011;1228;51.022;6.764;2024-03-23T13:06:12;2.90;;;2.70;;
2434;SDS011;1228;51.022;6.764;2024-03-23T13:08:38;3.30;;;3.00;;
2434;SDS011;1228;51.022;6.764;2024-03-23T13:11:05;3.73;;;3.03;;
2434;SDS011;1228;51.022;6.764;2024-03-23T13:13:33;5.27;;;3.10;;
2434;SDS011;1228;51.022;6.764;2024-03-23T13:15:59;4.83;;;3.33;;
2434;SDS011;1228;51.022;6.764;2024-03-23T13:18:25;3.53;;;3.33;;
2434;SDS011;1228;51.022;6.764;2024-03-23T13:20:51;5.37;;;3.50;;
2434;SDS011;1228;51.022;6.764;2024-03-23T13:23:17;6.13;;;3.53;;
2434;SDS011;1228;51.022;6.764;2024-03-23T13:25:49;4.60;;;3.47;;
2434;SDS011;1228;51.022;6.764;2024-03-23T13:28:18;5.07;;;3.93;;
2434;SDS011;1228;51.022;6.764;2024-03-23T13:30:54;4.57;;;4.13;;
2434;SDS011;1228;51.022;6.764;2024-03-23T13:33:22;7.90;;;4.33;;
2434;SDS011;1228;51.022;6.764;2024-03-23T13:35:48;3.73;;;3.33;;
2434;SDS011;1228;51.022;6.764;2024-03-23T13:38:17;4.80;;;3.83;;
2434;SDS011;1228;51.022;6.764;2024-03-23T13:40:53;3.07;;;2.87;;
2434;SDS011;1228;51.022;6.764;2024-03-23T13:43:19;6.60;;;5.93;;
2434;SDS011;1228;51.022;6.764;2024-03-23T13:45:46;2.97;;;2.77;;
2434;SDS011;1228;51.022;6.764;2024-03-23T13:48:13;3.63;;;2.83;;
2434;SDS011;1228;51.022;6.764;2024-03-23T13:50:40;3.30;;;3.00;;
2434;SDS011;1228;51.022;6.764;2024-03-23T13:53:06;3.70;;;3.13;;
2434;SDS011;1228;51.022;6.764;2024-03-23T13:55:33;4.83;;;3.10;;
2434;SDS011;1228;51.022;6.764;2024-03-23T13:57:58;3.70;;;3.40;;
2434;SDS011;1228;51.022;6.764;2024-03-23T14:00:24;3.70;;;3.30;;
2434;SDS011;1228;51.022;6.764;2024-03-23T14:02:50;4.33;;;3.50;;
2434;SDS011;1228;51.022;6.764;2024-03-23T14:05:15;3.77;;;3.57;;
2434;SDS011;1228;51.022;6.764;2024-03-23T14:07:41;3.50;;;3.30;;
2434;SDS011;1228;51.022;6.764;2024-03-23T14:10:07;2.80;;;2.60;;
2434;SDS011;1228;51.022;6.764;2024-03-23T14:12:35;4.13;;;2.97;;
2434;SDS011;1228;51.022;6.764;2024-03-23T14:15:04;3.23;;;2.93;;
2434;SDS011;1228;51.022;6.764;2024-03-23T14:17:30;3.30;;;3.00;;
2434;SDS011;1228;51.022;6.764;2024-03-23T14:19:56;4.40;;;2.80;;
2434;SDS011;1228;51.022;6.764;2024-03-23T14:22:25;2.63;;;2.33;;
2434;SDS011;1228;51.022;6.764;2024-03-23T14:24:52;8.23;;;3.10;;
2434;SDS011;1228;51.022;6.764;2024-03-23T14:27:18;5.47;;;3.40;;
2434;SDS011;1228;51.022;6.764;2024-03-23T14:29:45;4.17;;;3.63;;
2434;SDS011;1228;51.022;6.764;2024-03-23T14:32:11;5.90;;;3.93;;
2434;SDS011;1228;51.022;6.764;2024-03-23T14:34:37;4.27;;;3.87;;
2434;SDS011;1228;51.022;6.764;2024-03-23T14:37:03;4.27;;;3.97;;
2434;SDS011;1228;51.022;6.764;2024-03-23T14:39:29;8.13;;;4.67;;
2434;SDS011;1228;51.022;6.764;2024-03-23T14:41:55;4.10;;;3.80;;
2434;SDS011;1228;51.022;6.764;2024-03-23T14:44:21;6.07;;;3.70;;
2434;SDS011;1228;51.022;6.764;2024-03-23T14:46:47;4.23;;;3.60;;
2434;SDS011;1228;51.022;6.764;2024-03-23T14:49:15;6.97;;;3.50;;
2434;SDS011;1228;51.022;6.764;2024-03-23T14:51:44;4.90;;;3.63;;
2434;SDS011;1228;51.022;6.764;2024-03-23T14:54:10;3.90;;;3.40;;
2434;SDS011;1228;51.022;6.764;2024-03-23T14:56:36;4.30;;;3.90;;
2434;SDS011;1228;51.022;6.764;2024-03-23T14:59:03;4.40;;;4.00;;
2434;SDS011;1228;51.022;6.764;2024-03-23T15:01:28;3.97;;;3.60;;
2434;SDS011;1228;51.022;6.764;2024-03-23T15:03:54;3.87;;;3.67;;
2434;SDS011;1228;51.022;6.764;2024-03-23T15:06:20;4.37;;;4.00;;
2434;SDS011;1228;51.022;6.764;2024-03-23T15:08:45;6.53;;;4.40;;
2434;SDS011;1228;51.022;6.764;2024-03-23T15:11:11;4.00;;;3.60;;
2434;SDS011;1228;51.022;6.764;2024-03-23T15:13:37;4.73;;;4.20;;
2434;SDS011;1228;51.022;6.764;2024-03-23T15:16:03;3.67;;;3.30;;
2434;SDS011;1228;51.022;6.764;2024-03-23T15:18:30;5.07;;;4.37;;
2434;SDS011;1228;51.022;6.764;2024-03-23T15:21:00;7.40;;;4.73;;
2434;SDS011;1228;51.022;6.764;2024-03-23T15:23:27;3.97;;;3.67;;
2434;SDS011;1228;51.022;6.764;2024-03-23T15:26:00;3.73;;;3.33;;
2434;SDS011;1228;51.022;6.764;2024-03-23T15:28:27;3.40;;;3.20;;
2434;SDS011;1228;51.022;6.764;2024-03-23T15:31:03;3.83;;;3.60;;
2434;SDS011;1228;51.022;6.764;2024-03-23T15:33:29;5.00;;;3.77;;
2434;SDS011;1228;51.022;6.764;2024-03-23T15:36:02;4.20;;;3.80;;
2434;SDS011;1228;51.022;6.764;2024-03-23T15:38:28;3.90;;;3.53;;
2434;SDS011;1228;51.022;6.764;2024-03-23T15:40:56;4.37;;;3.97;;
2434;SDS011;1228;51.022;6.764;2024-03-23T15:43:22;5.40;;;4.90;;
2434;SDS011;1228;51.022;6.764;2024-03-23T15:45:57;3.70;;;3.40;;
2434;SDS011;1228;51.022;6.764;2024-03-23T15:48:24;4.70;;;4.13;;
2434;SDS011;1228;51.022;6.764;2024-03-23T15:50:52;3.07;;;2.87;;
2434;SDS011;1228;51.022;6.764;2024-03-23T15:53:22;3.20;;;3.00;;
2434;SDS011;1228;51.022;6.764;2024-03-23T15:55:55;3.00;;;2.80;;
2434;SDS011;1228;51.022;6.764;2024-03-23T15:58:22;3.23;;;2.83;;
2434;SDS011;1228;51.022;6.764;2024-03-23T16:00:54;3.20;;;3.00;;
2434;SDS011;1228;51.022;6.764;2024-03-23T16:03:21;4.10;;;3.80;;
2434;SDS011;1228;51.022;6.764;2024-03-23T16:05:51;4.40;;;4.00;;
2434;SDS011;1228;51.022;6.764;2024-03-23T16:08:17;3.37;;;3.13;;
2434;SDS011;1228;51.022;6.764;2024-03-23T16:10:42;4.07;;;3.73;;
2434;SDS011;1228;51.022;6.764;2024-03-23T16:13:08;4.43;;;4.03;;
2434;SDS011;1228;51.022;6.764;2024-03-23T16:15:33;3.70;;;3.40;;
2434;SDS011;1228;51.022;6.764;2024-03-23T16:17:59;4.03;;;3.40;;
2434;SDS011;1228;51.022;6.764;2024-03-23T16:20:25;5.37;;;3.90;;
2434;SDS011;1228;51.022;6.764;2024-03-23T16:22:50;4.00;;;3.60;;
2434;SDS011;1228;51.022;6.764;2024-03-23T16:25:16;8.43;;;3.77;;
2434;SDS011;1228;51.022;6.764;2024-03-23T16:27:42;4.50;;;4.10;;
2434;SDS011;1228;51.022;6.764;2024-03-23T16:30:07;4.17;;;3.37;;